Kezdőlap
METAR-TAF:

METAR-TAF

Repülőterek :

Thoothukudi, India

földrajzi szélesség: 8-43-27N, földrajzi hosszúság: 78-01-33E, magasság: 39 m

Jelenlegi meteorológiai megfigyelések

A jelentés 18 órával és 13 perccel ezelõtt készült, 12:00 UTC
Nyugati szél 15 kt széllökések: 25 kt
Hőmérséklet 29°C
Páratartalom 79%
Légköri nyomás 1004 hPa
Látótávolság: 4000 m
Kevés felhő 1800 lábon
Szakadozott felhőzet 10000 lábon
enyhe esõ

METAR: VOTK 241200Z 27015G25KT 4000 -RA FEW018 BKN100 29/25 Q1004 TEMPO 5000 HZ

Idő: 11:43 (06:13 UTC)


TAF: hiányzik

Meteorológiai megfigyelések és előrejelzések több, mint 4000 repülőtéren (METAR és TAF jelentéseket).

A térképen piros és sárga pontok jelzik az elérhető meteorológiai állomásokat.

Mozgassa az egeret a pont fölött, hogy megjelenjen az állomás neve.

Azután kattintson az időjárási megfigyelések és előrejelzések megtekintéséhez.

A térkép megváltoztatása: kattintson a fekete keresztel jelölt zöld gombra ráközelítéshez, a vonallal jelölt zöld gombra távolításhoz, vagy a zöld nyilakra a szomszédos térképek eléréséhez.


METAR-TAF: